sensor_id;sensor_type;location;lat;lon;timestamp;P1;durP1;ratioP1;P2;durP2;ratioP2
50709;SDS011;37033;49.994;21.992;2023-11-21T00:00:10;5.30;;;4.10;;
50709;SDS011;37033;49.994;21.992;2023-11-21T00:03:02;8.20;;;4.70;;
50709;SDS011;37033;49.994;21.992;2023-11-21T00:05:32;7.40;;;4.50;;
50709;SDS011;37033;49.994;21.992;2023-11-21T00:08:03;6.80;;;3.90;;
50709;SDS011;37033;49.994;21.992;2023-11-21T00:10:34;5.70;;;4.00;;
50709;SDS011;37033;49.994;21.992;2023-11-21T00:13:06;8.50;;;4.80;;
50709;SDS011;37033;49.994;21.992;2023-11-21T00:15:36;8.80;;;5.00;;
50709;SDS011;37033;49.994;21.992;2023-11-21T00:18:08;8.60;;;5.70;;
50709;SDS011;37033;49.994;21.992;2023-11-21T00:20:38;13.90;;;6.60;;
50709;SDS011;37033;49.994;21.992;2023-11-21T00:23:09;15.90;;;7.50;;
50709;SDS011;37033;49.994;21.992;2023-11-21T00:25:40;19.20;;;7.50;;
50709;SDS011;37033;49.994;21.992;2023-11-21T00:28:11;12.80;;;6.50;;
50709;SDS011;37033;49.994;21.992;2023-11-21T00:30:42;10.70;;;5.30;;
50709;SDS011;37033;49.994;21.992;2023-11-21T00:33:13;7.00;;;4.10;;
50709;SDS011;37033;49.994;21.992;2023-11-21T00:35:44;7.00;;;4.80;;
50709;SDS011;37033;49.994;21.992;2023-11-21T00:38:14;9.80;;;4.70;;
50709;SDS011;37033;49.994;21.992;2023-11-21T00:40:47;6.60;;;4.00;;
50709;SDS011;37033;49.994;21.992;2023-11-21T00:43:18;6.40;;;4.30;;
50709;SDS011;37033;49.994;21.992;2023-11-21T00:45:48;4.50;;;3.40;;
50709;SDS011;37033;49.994;21.992;2023-11-21T00:48:19;4.50;;;3.40;;
50709;SDS011;37033;49.994;21.992;2023-11-21T00:50:50;5.80;;;3.80;;
50709;SDS011;37033;49.994;21.992;2023-11-21T00:53:20;4.70;;;3.60;;
50709;SDS011;37033;49.994;21.992;2023-11-21T00:55:51;5.60;;;3.70;;
50709;SDS011;37033;49.994;21.992;2023-11-21T00:58:24;9.20;;;5.70;;
50709;SDS011;37033;49.994;21.992;2023-11-21T01:00:55;10.00;;;6.80;;
50709;SDS011;37033;49.994;21.992;2023-11-21T01:03:26;10.40;;;6.80;;
50709;SDS011;37033;49.994;21.992;2023-11-21T01:05:56;9.60;;;6.60;;
50709;SDS011;37033;49.994;21.992;2023-11-21T01:08:27;8.70;;;6.20;;
50709;SDS011;37033;49.994;21.992;2023-11-21T01:10:59;9.00;;;6.40;;
50709;SDS011;37033;49.994;21.992;2023-11-21T01:13:29;9.80;;;6.50;;
50709;SDS011;37033;49.994;21.992;2023-11-21T01:16:00;9.80;;;6.00;;
50709;SDS011;37033;49.994;21.992;2023-11-21T01:18:31;10.40;;;5.50;;
50709;SDS011;37033;49.994;21.992;2023-11-21T01:21:03;8.60;;;5.00;;
50709;SDS011;37033;49.994;21.992;2023-11-21T01:23:35;5.50;;;4.30;;
50709;SDS011;37033;49.994;21.992;2023-11-21T01:26:07;7.40;;;5.00;;
50709;SDS011;37033;49.994;21.992;2023-11-21T01:28:37;5.00;;;3.70;;
50709;SDS011;37033;49.994;21.992;2023-11-21T01:31:08;5.10;;;3.80;;
50709;SDS011;37033;49.994;21.992;2023-11-21T01:33:39;4.80;;;3.40;;
50709;SDS011;37033;49.994;21.992;2023-11-21T01:36:10;4.40;;;3.40;;
50709;SDS011;37033;49.994;21.992;2023-11-21T01:38:40;4.50;;;3.80;;
50709;SDS011;37033;49.994;21.992;2023-11-21T01:41:11;5.00;;;3.60;;
50709;SDS011;37033;49.994;21.992;2023-11-21T01:43:42;4.70;;;3.50;;
50709;SDS011;37033;49.994;21.992;2023-11-21T01:46:13;4.50;;;3.50;;
50709;SDS011;37033;49.994;21.992;2023-11-21T01:48:43;3.60;;;2.50;;
50709;SDS011;37033;49.994;21.992;2023-11-21T01:51:14;3.20;;;2.80;;
50709;SDS011;37033;49.994;21.992;2023-11-21T01:53:45;4.50;;;3.20;;
50709;SDS011;37033;49.994;21.992;2023-11-21T01:56:16;3.10;;;2.80;;
50709;SDS011;37033;49.994;21.992;2023-11-21T01:58:47;3.80;;;3.20;;
50709;SDS011;37033;49.994;21.992;2023-11-21T02:01:18;4.10;;;3.40;;
50709;SDS011;37033;49.994;21.992;2023-11-21T02:03:49;4.00;;;2.90;;
50709;SDS011;37033;49.994;21.992;2023-11-21T02:06:20;4.00;;;3.50;;
50709;SDS011;37033;49.994;21.992;2023-11-21T02:08:52;4.20;;;3.30;;
50709;SDS011;37033;49.994;21.992;2023-11-21T02:11:22;4.50;;;3.70;;
50709;SDS011;37033;49.994;21.992;2023-11-21T02:13:54;4.40;;;3.60;;
50709;SDS011;37033;49.994;21.992;2023-11-21T02:16:25;3.30;;;2.60;;
50709;SDS011;37033;49.994;21.992;2023-11-21T02:18:59;7.10;;;2.90;;
50709;SDS011;37033;49.994;21.992;2023-11-21T02:21:30;3.10;;;2.50;;
50709;SDS011;37033;49.994;21.992;2023-11-21T02:24:02;3.80;;;3.40;;
50709;SDS011;37033;49.994;21.992;2023-11-21T02:26:33;3.20;;;2.60;;
50709;SDS011;37033;49.994;21.992;2023-11-21T02:29:04;2.50;;;2.30;;
50709;SDS011;37033;49.994;21.992;2023-11-21T02:31:38;3.70;;;3.40;;
50709;SDS011;37033;49.994;21.992;2023-11-21T02:34:15;3.00;;;2.70;;
50709;SDS011;37033;49.994;21.992;2023-11-21T02:36:46;4.00;;;2.90;;
50709;SDS011;37033;49.994;21.992;2023-11-21T02:39:18;3.40;;;2.70;;
50709;SDS011;37033;49.994;21.992;2023-11-21T02:41:49;4.50;;;3.40;;
50709;SDS011;37033;49.994;21.992;2023-11-21T02:44:21;3.70;;;2.90;;
50709;SDS011;37033;49.994;21.992;2023-11-21T02:46:51;3.80;;;3.20;;
50709;SDS011;37033;49.994;21.992;2023-11-21T02:49:22;3.80;;;2.60;;
50709;SDS011;37033;49.994;21.992;2023-11-21T02:51:56;5.00;;;2.70;;
50709;SDS011;37033;49.994;21.992;2023-11-21T02:54:26;3.90;;;3.50;;
50709;SDS011;37033;49.994;21.992;2023-11-21T02:56:57;4.10;;;3.10;;
50709;SDS011;37033;49.994;21.992;2023-11-21T02:59:28;3.10;;;2.50;;
50709;SDS011;37033;49.994;21.992;2023-11-21T03:01:58;2.70;;;2.40;;
50709;SDS011;37033;49.994;21.992;2023-11-21T03:04:29;4.30;;;3.30;;
50709;SDS011;37033;49.994;21.992;2023-11-21T03:07:01;3.20;;;2.70;;
50709;SDS011;37033;49.994;21.992;2023-11-21T03:09:33;3.90;;;2.90;;
50709;SDS011;37033;49.994;21.992;2023-11-21T03:12:04;4.10;;;3.20;;
50709;SDS011;37033;49.994;21.992;2023-11-21T03:14:36;8.20;;;5.90;;
50709;SDS011;37033;49.994;21.992;2023-11-21T03:17:07;4.30;;;3.90;;
50709;SDS011;37033;49.994;21.992;2023-11-21T03:19:38;5.80;;;4.10;;
50709;SDS011;37033;49.994;21.992;2023-11-21T03:22:10;3.90;;;3.00;;
50709;SDS011;37033;49.994;21.992;2023-11-21T03:24:40;3.70;;;3.10;;
50709;SDS011;37033;49.994;21.992;2023-11-21T03:27:11;3.40;;;2.60;;
50709;SDS011;37033;49.994;21.992;2023-11-21T03:29:42;3.40;;;3.00;;
50709;SDS011;37033;49.994;21.992;2023-11-21T03:32:12;4.10;;;3.10;;
50709;SDS011;37033;49.994;21.992;2023-11-21T03:34:54;2.80;;;2.50;;
50709;SDS011;37033;49.994;21.992;2023-11-21T03:37:25;3.20;;;2.90;;
50709;SDS011;37033;49.994;21.992;2023-11-21T03:39:56;3.40;;;3.10;;
50709;SDS011;37033;49.994;21.992;2023-11-21T03:42:27;3.40;;;2.80;;
50709;SDS011;37033;49.994;21.992;2023-11-21T03:44:58;3.50;;;2.80;;
50709;SDS011;37033;49.994;21.992;2023-11-21T03:47:28;3.30;;;2.80;;
50709;SDS011;37033;49.994;21.992;2023-11-21T03:49:59;3.90;;;2.60;;
50709;SDS011;37033;49.994;21.992;2023-11-21T03:52:31;3.90;;;3.20;;
50709;SDS011;37033;49.994;21.992;2023-11-21T03:55:01;3.40;;;2.90;;
50709;SDS011;37033;49.994;21.992;2023-11-21T03:57:32;3.40;;;2.90;;
50709;SDS011;37033;49.994;21.992;2023-11-21T04:00:03;3.30;;;3.00;;
50709;SDS011;37033;49.994;21.992;2023-11-21T04:02:37;3.80;;;2.90;;
50709;SDS011;37033;49.994;21.992;2023-11-21T04:05:08;6.10;;;3.40;;
50709;SDS011;37033;49.994;21.992;2023-11-21T04:07:39;4.40;;;3.20;;
50709;SDS011;37033;49.994;21.992;2023-11-21T04:10:10;4.00;;;3.40;;
50709;SDS011;37033;49.994;21.992;2023-11-21T04:12:41;5.20;;;3.40;;
50709;SDS011;37033;49.994;21.992;2023-11-21T04:15:12;4.50;;;3.70;;
50709;SDS011;37033;49.994;21.992;2023-11-21T04:17:43;5.30;;;4.20;;
50709;SDS011;37033;49.994;21.992;2023-11-21T04:20:14;5.50;;;4.20;;
50709;SDS011;37033;49.994;21.992;2023-11-21T04:22:45;6.90;;;3.90;;
50709;SDS011;37033;49.994;21.992;2023-11-21T04:25:16;5.20;;;3.50;;
50709;SDS011;37033;49.994;21.992;2023-11-21T04:27:46;3.70;;;3.00;;
50709;SDS011;37033;49.994;21.992;2023-11-21T04:30:17;4.80;;;2.80;;
50709;SDS011;37033;49.994;21.992;2023-11-21T04:32:48;5.80;;;3.00;;
50709;SDS011;37033;49.994;21.992;2023-11-21T04:35:19;3.10;;;2.70;;
50709;SDS011;37033;49.994;21.992;2023-11-21T04:37:50;2.60;;;2.40;;
50709;SDS011;37033;49.994;21.992;2023-11-21T04:40:21;3.60;;;2.60;;
50709;SDS011;37033;49.994;21.992;2023-11-21T04:42:51;2.80;;;2.40;;
50709;SDS011;37033;49.994;21.992;2023-11-21T04:45:22;3.60;;;2.90;;
50709;SDS011;37033;49.994;21.992;2023-11-21T04:47:53;3.70;;;3.40;;
50709;SDS011;37033;49.994;21.992;2023-11-21T04:50:23;3.40;;;2.70;;
50709;SDS011;37033;49.994;21.992;2023-11-21T04:52:55;55.70;;;28.60;;
50709;SDS011;37033;49.994;21.992;2023-11-21T04:55:25;4.90;;;3.70;;
50709;SDS011;37033;49.994;21.992;2023-11-21T04:57:56;4.60;;;3.60;;
50709;SDS011;37033;49.994;21.992;2023-11-21T05:00:27;5.60;;;3.80;;
50709;SDS011;37033;49.994;21.992;2023-11-21T05:02:57;3.90;;;3.00;;
50709;SDS011;37033;49.994;21.992;2023-11-21T05:05:29;4.00;;;2.80;;
50709;SDS011;37033;49.994;21.992;2023-11-21T05:08:00;4.30;;;3.20;;
50709;SDS011;37033;49.994;21.992;2023-11-21T05:10:31;3.70;;;3.20;;
50709;SDS011;37033;49.994;21.992;2023-11-21T05:13:01;3.20;;;2.90;;
50709;SDS011;37033;49.994;21.992;2023-11-21T05:15:32;5.60;;;3.10;;
50709;SDS011;37033;49.994;21.992;2023-11-21T05:18:03;2.90;;;2.60;;
50709;SDS011;37033;49.994;21.992;2023-11-21T05:20:34;4.10;;;3.10;;
50709;SDS011;37033;49.994;21.992;2023-11-21T05:23:07;3.50;;;3.00;;
50709;SDS011;37033;49.994;21.992;2023-11-21T05:25:38;5.20;;;3.90;;
50709;SDS011;37033;49.994;21.992;2023-11-21T05:28:09;4.00;;;3.30;;
50709;SDS011;37033;49.994;21.992;2023-11-21T05:30:39;5.60;;;3.50;;
50709;SDS011;37033;49.994;21.992;2023-11-21T05:33:10;3.70;;;3.30;;
50709;SDS011;37033;49.994;21.992;2023-11-21T05:35:41;4.10;;;3.70;;
50709;SDS011;37033;49.994;21.992;2023-11-21T05:38:11;3.60;;;3.20;;
50709;SDS011;37033;49.994;21.992;2023-11-21T05:40:42;3.70;;;3.10;;
50709;SDS011;37033;49.994;21.992;2023-11-21T05:43:13;3.80;;;3.40;;
50709;SDS011;37033;49.994;21.992;2023-11-21T05:45:44;4.20;;;3.60;;
50709;SDS011;37033;49.994;21.992;2023-11-21T05:48:14;5.30;;;4.00;;
50709;SDS011;37033;49.994;21.992;2023-11-21T05:50:45;4.40;;;3.40;;
50709;SDS011;37033;49.994;21.992;2023-11-21T05:53:16;4.70;;;4.20;;
50709;SDS011;37033;49.994;21.992;2023-11-21T05:55:47;4.50;;;3.70;;
50709;SDS011;37033;49.994;21.992;2023-11-21T05:58:18;6.00;;;4.00;;
50709;SDS011;37033;49.994;21.992;2023-11-21T06:00:48;4.90;;;3.50;;
50709;SDS011;37033;49.994;21.992;2023-11-21T06:03:19;6.30;;;3.70;;
50709;SDS011;37033;49.994;21.992;2023-11-21T06:05:50;4.00;;;3.60;;
50709;SDS011;37033;49.994;21.992;2023-11-21T06:08:21;3.70;;;3.00;;
50709;SDS011;37033;49.994;21.992;2023-11-21T06:10:52;3.50;;;3.20;;
50709;SDS011;37033;49.994;21.992;2023-11-21T06:13:23;4.30;;;3.20;;
50709;SDS011;37033;49.994;21.992;2023-11-21T06:15:54;3.80;;;3.00;;
50709;SDS011;37033;49.994;21.992;2023-11-21T06:18:24;3.90;;;3.50;;
50709;SDS011;37033;49.994;21.992;2023-11-21T06:20:55;4.30;;;3.70;;
50709;SDS011;37033;49.994;21.992;2023-11-21T06:23:26;6.40;;;4.20;;
50709;SDS011;37033;49.994;21.992;2023-11-21T06:25:57;8.50;;;4.40;;
50709;SDS011;37033;49.994;21.992;2023-11-21T06:28:27;4.20;;;3.50;;
50709;SDS011;37033;49.994;21.992;2023-11-21T06:30:58;3.60;;;3.30;;
50709;SDS011;37033;49.994;21.992;2023-11-21T06:33:32;3.80;;;3.10;;
50709;SDS011;37033;49.994;21.992;2023-11-21T06:36:05;3.00;;;2.70;;
50709;SDS011;37033;49.994;21.992;2023-11-21T06:38:39;4.20;;;3.50;;
50709;SDS011;37033;49.994;21.992;2023-11-21T06:41:09;4.30;;;3.20;;
50709;SDS011;37033;49.994;21.992;2023-11-21T06:43:42;5.00;;;4.10;;
50709;SDS011;37033;49.994;21.992;2023-11-21T06:46:14;3.80;;;3.40;;
50709;SDS011;37033;49.994;21.992;2023-11-21T06:48:44;3.90;;;3.50;;
50709;SDS011;37033;49.994;21.992;2023-11-21T06:51:17;5.60;;;3.40;;
50709;SDS011;37033;49.994;21.992;2023-11-21T06:53:47;4.60;;;3.70;;
50709;SDS011;37033;49.994;21.992;2023-11-21T06:56:18;4.60;;;2.90;;
50709;SDS011;37033;49.994;21.992;2023-11-21T06:58:49;3.90;;;3.50;;
50709;SDS011;37033;49.994;21.992;2023-11-21T07:01:21;4.20;;;2.90;;
50709;SDS011;37033;49.994;21.992;2023-11-21T07:03:52;8.00;;;3.90;;
50709;SDS011;37033;49.994;21.992;2023-11-21T07:06:23;4.50;;;3.20;;
50709;SDS011;37033;49.994;21.992;2023-11-21T07:08:53;5.00;;;3.40;;
50709;SDS011;37033;49.994;21.992;2023-11-21T07:11:24;4.00;;;3.60;;
50709;SDS011;37033;49.994;21.992;2023-11-21T07:13:55;4.40;;;3.50;;
50709;SDS011;37033;49.994;21.992;2023-11-21T07:16:26;3.90;;;3.30;;
50709;SDS011;37033;49.994;21.992;2023-11-21T07:18:58;4.80;;;3.70;;
50709;SDS011;37033;49.994;21.992;2023-11-21T07:21:28;3.90;;;3.30;;
50709;SDS011;37033;49.994;21.992;2023-11-21T07:23:59;3.80;;;3.20;;
50709;SDS011;37033;49.994;21.992;2023-11-21T07:26:30;3.30;;;3.00;;
50709;SDS011;37033;49.994;21.992;2023-11-21T07:29:01;4.60;;;3.20;;
50709;SDS011;37033;49.994;21.992;2023-11-21T07:31:34;4.30;;;3.50;;
50709;SDS011;37033;49.994;21.992;2023-11-21T07:34:04;4.50;;;4.10;;
50709;SDS011;37033;49.994;21.992;2023-11-21T07:36:35;6.00;;;3.80;;
50709;SDS011;37033;49.994;21.992;2023-11-21T07:39:06;5.30;;;3.90;;
50709;SDS011;37033;49.994;21.992;2023-11-21T07:41:38;4.90;;;4.40;;
50709;SDS011;37033;49.994;21.992;2023-11-21T07:44:12;6.00;;;4.00;;
50709;SDS011;37033;49.994;21.992;2023-11-21T07:46:43;5.50;;;4.20;;
50709;SDS011;37033;49.994;21.992;2023-11-21T07:49:14;4.30;;;3.90;;
50709;SDS011;37033;49.994;21.992;2023-11-21T07:51:48;6.20;;;4.20;;
50709;SDS011;37033;49.994;21.992;2023-11-21T07:54:18;4.60;;;3.90;;
50709;SDS011;37033;49.994;21.992;2023-11-21T07:56:49;5.20;;;4.30;;
50709;SDS011;37033;49.994;21.992;2023-11-21T07:59:20;4.00;;;3.60;;
50709;SDS011;37033;49.994;21.992;2023-11-21T08:01:50;4.50;;;4.10;;
50709;SDS011;37033;49.994;21.992;2023-11-21T08:04:21;4.90;;;4.20;;
50709;SDS011;37033;49.994;21.992;2023-11-21T08:06:52;6.30;;;4.30;;
50709;SDS011;37033;49.994;21.992;2023-11-21T08:09:23;5.80;;;4.90;;
50709;SDS011;37033;49.994;21.992;2023-11-21T08:11:54;7.70;;;4.30;;
50709;SDS011;37033;49.994;21.992;2023-11-21T08:14:25;7.70;;;5.50;;
50709;SDS011;37033;49.994;21.992;2023-11-21T08:16:55;8.50;;;5.30;;
50709;SDS011;37033;49.994;21.992;2023-11-21T08:19:26;5.30;;;4.70;;
50709;SDS011;37033;49.994;21.992;2023-11-21T08:21:57;10.70;;;5.40;;
50709;SDS011;37033;49.994;21.992;2023-11-21T08:24:28;8.30;;;5.30;;
50709;SDS011;37033;49.994;21.992;2023-11-21T08:26:58;6.30;;;5.10;;
50709;SDS011;37033;49.994;21.992;2023-11-21T08:29:29;6.30;;;5.10;;
50709;SDS011;37033;49.994;21.992;2023-11-21T08:32:00;8.40;;;4.80;;
50709;SDS011;37033;49.994;21.992;2023-11-21T08:34:31;5.90;;;4.50;;
50709;SDS011;37033;49.994;21.992;2023-11-21T08:37:02;5.60;;;4.70;;
50709;SDS011;37033;49.994;21.992;2023-11-21T08:39:33;7.90;;;5.30;;
50709;SDS011;37033;49.994;21.992;2023-11-21T08:42:05;6.70;;;5.00;;
50709;SDS011;37033;49.994;21.992;2023-11-21T08:44:36;5.70;;;4.80;;
50709;SDS011;37033;49.994;21.992;2023-11-21T08:47:07;4.60;;;4.10;;
50709;SDS011;37033;49.994;21.992;2023-11-21T08:49:38;7.40;;;4.70;;
50709;SDS011;37033;49.994;21.992;2023-11-21T08:52:09;6.80;;;4.40;;
50709;SDS011;37033;49.994;21.992;2023-11-21T08:54:39;6.70;;;5.20;;
50709;SDS011;37033;49.994;21.992;2023-11-21T08:57:12;7.40;;;5.10;;
50709;SDS011;37033;49.994;21.992;2023-11-21T08:59:43;5.00;;;4.50;;
50709;SDS011;37033;49.994;21.992;2023-11-21T09:02:14;6.80;;;4.80;;
50709;SDS011;37033;49.994;21.992;2023-11-21T09:04:44;5.50;;;4.60;;
50709;SDS011;37033;49.994;21.992;2023-11-21T09:07:15;6.90;;;5.30;;
50709;SDS011;37033;49.994;21.992;2023-11-21T09:09:48;6.80;;;5.00;;
50709;SDS011;37033;49.994;21.992;2023-11-21T09:12:18;7.30;;;5.00;;
50709;SDS011;37033;49.994;21.992;2023-11-21T09:14:49;6.00;;;4.80;;
50709;SDS011;37033;49.994;21.992;2023-11-21T09:17:20;5.20;;;4.20;;
50709;SDS011;37033;49.994;21.992;2023-11-21T09:19:50;6.10;;;4.90;;
50709;SDS011;37033;49.994;21.992;2023-11-21T09:22:21;6.60;;;3.90;;
50709;SDS011;37033;49.994;21.992;2023-11-21T09:24:52;7.40;;;5.20;;
50709;SDS011;37033;49.994;21.992;2023-11-21T09:27:24;6.70;;;4.10;;
50709;SDS011;37033;49.994;21.992;2023-11-21T09:29:55;6.60;;;4.60;;
50709;SDS011;37033;49.994;21.992;2023-11-21T09:32:25;5.40;;;4.40;;
50709;SDS011;37033;49.994;21.992;2023-11-21T09:34:57;5.50;;;4.20;;
50709;SDS011;37033;49.994;21.992;2023-11-21T09:37:29;6.20;;;4.50;;
50709;SDS011;37033;49.994;21.992;2023-11-21T09:40:00;5.40;;;4.60;;
50709;SDS011;37033;49.994;21.992;2023-11-21T09:42:39;5.40;;;3.90;;
50709;SDS011;37033;49.994;21.992;2023-11-21T09:45:15;7.30;;;4.90;;
50709;SDS011;37033;49.994;21.992;2023-11-21T09:47:51;4.50;;;4.00;;
50709;SDS011;37033;49.994;21.992;2023-11-21T09:50:24;5.00;;;4.00;;
50709;SDS011;37033;49.994;21.992;2023-11-21T09:53:04;7.70;;;4.50;;
50709;SDS011;37033;49.994;21.992;2023-11-21T09:55:43;7.50;;;5.10;;
50709;SDS011;37033;49.994;21.992;2023-11-21T09:58:14;7.10;;;5.00;;
50709;SDS011;37033;49.994;21.992;2023-11-21T10:00:46;8.40;;;5.30;;
50709;SDS011;37033;49.994;21.992;2023-11-21T10:03:17;7.00;;;5.90;;
50709;SDS011;37033;49.994;21.992;2023-11-21T10:05:50;6.50;;;4.70;;
50709;SDS011;37033;49.994;21.992;2023-11-21T10:08:22;5.90;;;5.00;;
50709;SDS011;37033;49.994;21.992;2023-11-21T10:10:55;12.00;;;9.30;;
50709;SDS011;37033;49.994;21.992;2023-11-21T10:13:27;16.80;;;11.90;;
50709;SDS011;37033;49.994;21.992;2023-11-21T10:16:00;10.80;;;8.00;;
50709;SDS011;37033;49.994;21.992;2023-11-21T10:18:33;9.50;;;8.50;;
50709;SDS011;37033;49.994;21.992;2023-11-21T10:21:07;9.10;;;7.50;;
50709;SDS011;37033;49.994;21.992;2023-11-21T10:23:39;8.70;;;7.80;;
50709;SDS011;37033;49.994;21.992;2023-11-21T10:26:11;11.30;;;7.50;;
50709;SDS011;37033;49.994;21.992;2023-11-21T10:28:55;9.60;;;7.70;;
50709;SDS011;37033;49.994;21.992;2023-11-21T10:31:27;6.60;;;5.20;;
50709;SDS011;37033;49.994;21.992;2023-11-21T10:34:12;3.50;;;3.00;;
50709;SDS011;37033;49.994;21.992;2023-11-21T10:36:43;7.80;;;5.10;;
50709;SDS011;37033;49.994;21.992;2023-11-21T10:39:16;24.30;;;16.90;;
50709;SDS011;37033;49.994;21.992;2023-11-21T10:41:48;12.40;;;9.80;;
50709;SDS011;37033;49.994;21.992;2023-11-21T10:44:18;13.50;;;10.50;;
50709;SDS011;37033;49.994;21.992;2023-11-21T10:46:52;11.50;;;10.00;;
50709;SDS011;37033;49.994;21.992;2023-11-21T10:49:24;11.50;;;7.00;;
50709;SDS011;37033;49.994;21.992;2023-11-21T10:51:55;5.40;;;4.50;;
50709;SDS011;37033;49.994;21.992;2023-11-21T10:54:26;7.50;;;5.80;;
50709;SDS011;37033;49.994;21.992;2023-11-21T10:56:58;14.40;;;10.90;;
50709;SDS011;37033;49.994;21.992;2023-11-21T11:02:01;7.70;;;6.10;;
50709;SDS011;37033;49.994;21.992;2023-11-21T11:04:41;30.30;;;18.10;;
50709;SDS011;37033;49.994;21.992;2023-11-21T11:07:13;11.50;;;9.30;;
50709;SDS011;37033;49.994;21.992;2023-11-21T11:09:45;7.80;;;7.10;;
50709;SDS011;37033;49.994;21.992;2023-11-21T11:12:16;10.20;;;6.70;;
50709;SDS011;37033;49.994;21.992;2023-11-21T11:14:47;30.50;;;17.80;;
50709;SDS011;37033;49.994;21.992;2023-11-21T11:17:20;9.50;;;7.50;;
50709;SDS011;37033;49.994;21.992;2023-11-21T11:19:50;11.50;;;8.40;;
50709;SDS011;37033;49.994;21.992;2023-11-21T11:22:28;34.40;;;20.70;;
50709;SDS011;37033;49.994;21.992;2023-11-21T11:25:14;19.40;;;12.40;;
50709;SDS011;37033;49.994;21.992;2023-11-21T11:28:04;46.30;;;27.40;;
50709;SDS011;37033;49.994;21.992;2023-11-21T11:30:41;23.90;;;15.10;;
50709;SDS011;37033;49.994;21.992;2023-11-21T11:33:21;29.20;;;16.50;;
50709;SDS011;37033;49.994;21.992;2023-11-21T11:36:02;12.50;;;8.20;;
50709;SDS011;37033;49.994;21.992;2023-11-21T11:38:35;8.10;;;5.30;;
50709;SDS011;37033;49.994;21.992;2023-11-21T11:41:06;15.80;;;11.30;;
50709;SDS011;37033;49.994;21.992;2023-11-21T11:43:38;13.90;;;10.60;;
50709;SDS011;37033;49.994;21.992;2023-11-21T11:46:11;8.10;;;6.40;;
50709;SDS011;37033;49.994;21.992;2023-11-21T11:48:42;7.20;;;6.50;;
50709;SDS011;37033;49.994;21.992;2023-11-21T11:51:14;8.20;;;4.90;;
50709;SDS011;37033;49.994;21.992;2023-11-21T11:53:47;8.10;;;6.60;;
50709;SDS011;37033;49.994;21.992;2023-11-21T11:56:21;7.10;;;5.80;;
50709;SDS011;37033;49.994;21.992;2023-11-21T11:58:55;6.50;;;5.20;;
50709;SDS011;37033;49.994;21.992;2023-11-21T12:01:26;5.60;;;4.30;;
50709;SDS011;37033;49.994;21.992;2023-11-21T12:07:02;12.20;;;8.90;;
50709;SDS011;37033;49.994;21.992;2023-11-21T12:09:34;6.20;;;4.90;;
50709;SDS011;37033;49.994;21.992;2023-11-21T12:12:06;5.00;;;4.50;;
50709;SDS011;37033;49.994;21.992;2023-11-21T12:14:37;4.20;;;3.80;;
50709;SDS011;37033;49.994;21.992;2023-11-21T12:17:08;5.30;;;4.80;;
50709;SDS011;37033;49.994;21.992;2023-11-21T12:19:39;8.50;;;6.10;;
50709;SDS011;37033;49.994;21.992;2023-11-21T12:22:10;7.00;;;4.60;;
50709;SDS011;37033;49.994;21.992;2023-11-21T12:24:41;19.60;;;9.30;;
50709;SDS011;37033;49.994;21.992;2023-11-21T12:27:12;14.10;;;7.60;;
50709;SDS011;37033;49.994;21.992;2023-11-21T12:29:42;12.20;;;7.60;;
50709;SDS011;37033;49.994;21.992;2023-11-21T12:32:13;30.90;;;21.50;;
50709;SDS011;37033;49.994;21.992;2023-11-21T12:34:46;13.40;;;8.60;;
50709;SDS011;37033;49.994;21.992;2023-11-21T12:37:17;8.40;;;6.00;;
50709;SDS011;37033;49.994;21.992;2023-11-21T12:39:48;6.70;;;6.00;;
50709;SDS011;37033;49.994;21.992;2023-11-21T12:42:18;8.60;;;6.00;;
50709;SDS011;37033;49.994;21.992;2023-11-21T12:44:49;13.30;;;6.50;;
50709;SDS011;37033;49.994;21.992;2023-11-21T12:47:48;11.10;;;6.70;;
50709;SDS011;37033;49.994;21.992;2023-11-21T12:50:19;9.00;;;7.60;;
50709;SDS011;37033;49.994;21.992;2023-11-21T12:52:53;11.10;;;7.10;;
50709;SDS011;37033;49.994;21.992;2023-11-21T12:55:29;7.70;;;6.00;;
50709;SDS011;37033;49.994;21.992;2023-11-21T12:58:03;7.40;;;5.90;;
50709;SDS011;37033;49.994;21.992;2023-11-21T13:00:37;13.10;;;7.00;;
50709;SDS011;37033;49.994;21.992;2023-11-21T13:03:10;7.00;;;6.20;;
50709;SDS011;37033;49.994;21.992;2023-11-21T13:05:46;10.50;;;7.10;;
50709;SDS011;37033;49.994;21.992;2023-11-21T13:08:18;12.70;;;8.20;;
50709;SDS011;37033;49.994;21.992;2023-11-21T13:10:50;20.10;;;9.20;;
50709;SDS011;37033;49.994;21.992;2023-11-21T13:13:23;9.60;;;7.10;;
50709;SDS011;37033;49.994;21.992;2023-11-21T13:15:55;12.30;;;8.70;;
50709;SDS011;37033;49.994;21.992;2023-11-21T13:18:32;15.10;;;8.60;;
50709;SDS011;37033;49.994;21.992;2023-11-21T13:21:03;12.10;;;8.90;;
50709;SDS011;37033;49.994;21.992;2023-11-21T13:23:39;19.00;;;11.80;;
50709;SDS011;37033;49.994;21.992;2023-11-21T13:26:10;19.80;;;12.20;;
50709;SDS011;37033;49.994;21.992;2023-11-21T13:28:42;15.10;;;10.00;;
50709;SDS011;37033;49.994;21.992;2023-11-21T13:31:15;23.10;;;13.20;;
50709;SDS011;37033;49.994;21.992;2023-11-21T13:33:54;31.10;;;15.30;;
50709;SDS011;37033;49.994;21.992;2023-11-21T13:36:32;30.90;;;15.00;;
50709;SDS011;37033;49.994;21.992;2023-11-21T13:39:03;59.20;;;18.90;;
50709;SDS011;37033;49.994;21.992;2023-11-21T13:41:35;45.70;;;18.70;;
50709;SDS011;37033;49.994;21.992;2023-11-21T13:44:06;31.00;;;16.80;;
50709;SDS011;37033;49.994;21.992;2023-11-21T13:46:43;38.20;;;16.90;;
50709;SDS011;37033;49.994;21.992;2023-11-21T13:49:14;39.60;;;16.30;;
50709;SDS011;37033;49.994;21.992;2023-11-21T13:51:48;26.10;;;13.20;;
50709;SDS011;37033;49.994;21.992;2023-11-21T13:54:22;24.00;;;11.70;;
50709;SDS011;37033;49.994;21.992;2023-11-21T13:56:53;24.00;;;12.20;;
50709;SDS011;37033;49.994;21.992;2023-11-21T13:59:24;46.80;;;17.90;;
50709;SDS011;37033;49.994;21.992;2023-11-21T14:01:58;52.00;;;21.30;;
50709;SDS011;37033;49.994;21.992;2023-11-21T14:04:40;82.20;;;31.80;;
50709;SDS011;37033;49.994;21.992;2023-11-21T14:07:23;76.70;;;28.80;;
50709;SDS011;37033;49.994;21.992;2023-11-21T14:10:03;78.80;;;27.00;;
50709;SDS011;37033;49.994;21.992;2023-11-21T14:12:36;79.70;;;29.90;;
50709;SDS011;37033;49.994;21.992;2023-11-21T14:15:09;50.80;;;19.70;;
50709;SDS011;37033;49.994;21.992;2023-11-21T14:17:46;35.60;;;15.40;;
50709;SDS011;37033;49.994;21.992;2023-11-21T14:20:17;37.80;;;13.20;;
50709;SDS011;37033;49.994;21.992;2023-11-21T14:22:49;31.50;;;13.70;;
50709;SDS011;37033;49.994;21.992;2023-11-21T14:25:19;25.80;;;13.80;;
50709;SDS011;37033;49.994;21.992;2023-11-21T14:27:50;32.70;;;14.90;;
50709;SDS011;37033;49.994;21.992;2023-11-21T14:30:21;29.00;;;12.30;;
50709;SDS011;37033;49.994;21.992;2023-11-21T14:32:52;26.20;;;13.00;;
50709;SDS011;37033;49.994;21.992;2023-11-21T14:35:23;29.20;;;13.90;;
50709;SDS011;37033;49.994;21.992;2023-11-21T14:37:54;42.80;;;16.90;;
50709;SDS011;37033;49.994;21.992;2023-11-21T14:40:26;31.20;;;15.20;;
50709;SDS011;37033;49.994;21.992;2023-11-21T14:43:01;26.40;;;13.20;;
50709;SDS011;37033;49.994;21.992;2023-11-21T14:45:33;32.20;;;15.10;;
50709;SDS011;37033;49.994;21.992;2023-11-21T14:48:04;33.90;;;15.50;;
50709;SDS011;37033;49.994;21.992;2023-11-21T14:50:43;33.10;;;15.20;;
50709;SDS011;37033;49.994;21.992;2023-11-21T14:53:38;39.90;;;17.40;;
50709;SDS011;37033;49.994;21.992;2023-11-21T14:56:21;36.60;;;16.50;;
50709;SDS011;37033;49.994;21.992;2023-11-21T14:58:58;30.80;;;15.30;;
50709;SDS011;37033;49.994;21.992;2023-11-21T15:01:33;41.50;;;18.00;;